Time;durP1;ratioP1;P1;durP2;ratioP2;P2;SDS_P1;SDS_P2;PMS_P1;PMS_P2;Temp;Humidity;BMP_temperature;BMP_pressure;BME280_temperature;BME280_humidity;BME280_pressure;Samples;Min_cycle;Max_cycle;Signal;HPM_P1;HPM_P2
2021/04/24 00:01:41;;;;;;;11.60;6.15;;;10.40;67.30;;;;;;5036025;28;20200;-74
2021/04/24 00:04:08;;;;;;;6.97;5.60;;;10.30;67.90;;;;;;5036113;28;20299;-74
2021/04/24 00:06:35;;;;;;;10.55;6.10;;;10.30;68.60;;;;;;5035718;28;20267;-74
2021/04/24 00:09:03;;;;;;;8.80;5.72;;;10.30;68.50;;;;;;5036050;28;20291;-74
2021/04/24 00:11:29;;;;;;;8.85;5.18;;;10.20;68.90;;;;;;5035998;28;20295;-74
2021/04/24 00:13:55;;;;;;;8.82;5.75;;;10.20;69.00;;;;;;5035899;28;20230;-74
2021/04/24 00:16:22;;;;;;;8.52;5.10;;;10.10;68.60;;;;;;5035428;28;20227;-74
2021/04/24 00:18:49;;;;;;;9.82;6.35;;;10.00;69.20;;;;;;5035774;28;20300;-74
2021/04/24 00:21:16;;;;;;;8.25;5.90;;;10.10;69.50;;;;;;5035820;28;20212;-74
2021/04/24 00:23:43;;;;;;;10.80;6.10;;;10.00;69.80;;;;;;5035813;28;20255;-74
2021/04/24 00:26:09;;;;;;;9.40;6.10;;;9.90;71.30;;;;;;5035430;28;20349;-73
2021/04/24 00:28:36;;;;;;;13.00;6.13;;;9.90;71.90;;;;;;5035638;28;20295;-74
2021/04/24 00:31:02;;;;;;;10.15;5.70;;;9.80;72.00;;;;;;5035277;28;20299;-74
2021/04/24 00:33:28;;;;;;;7.68;5.80;;;9.70;72.30;;;;;;5035209;28;20327;-74
2021/04/24 00:35:55;;;;;;;14.30;6.57;;;9.60;72.60;;;;;;5035053;28;20220;-74
2021/04/24 00:38:22;;;;;;;9.32;6.00;;;9.60;72.90;;;;;;5035410;28;20299;-74
2021/04/24 00:40:48;;;;;;;12.32;5.75;;;9.50;73.30;;;;;;5035432;28;20204;-74
2021/04/24 00:43:16;;;;;;;14.25;5.72;;;9.50;73.70;;;;;;5035148;28;20273;-74
2021/04/24 00:45:43;;;;;;;9.18;5.63;;;9.40;74.10;;;;;;5035177;28;20204;-73
2021/04/24 00:48:10;;;;;;;7.35;5.22;;;9.40;74.30;;;;;;5035265;28;20574;-72
2021/04/24 00:50:38;;;;;;;8.88;5.88;;;9.30;75.10;;;;;;5035225;28;20210;-74
2021/04/24 00:53:07;;;;;;;7.38;5.50;;;9.30;74.90;;;;;;5035181;28;20230;-74
2021/04/24 00:55:34;;;;;;;9.23;5.63;;;9.20;74.10;;;;;;5034902;28;20231;-74
2021/04/24 00:58:02;;;;;;;9.73;6.22;;;9.20;75.50;;;;;;5034993;28;20295;-74
2021/04/24 01:00:29;;;;;;;6.85;4.53;;;9.20;76.00;;;;;;5034997;28;20208;-74
2021/04/24 01:02:57;;;;;;;12.30;5.32;;;9.20;76.00;;;;;;5034686;28;20310;-73
2021/04/24 01:05:26;;;;;;;13.55;5.63;;;9.10;76.00;;;;;;5034801;28;20204;-74
2021/04/24 01:07:52;;;;;;;8.32;5.10;;;9.10;75.70;;;;;;5034908;28;20294;-74
2021/04/24 01:10:20;;;;;;;7.85;5.22;;;9.10;75.90;;;;;;5034915;28;20307;-74
2021/04/24 01:12:48;;;;;;;8.77;5.45;;;9.10;76.10;;;;;;5034752;28;20286;-74
2021/04/24 01:15:17;;;;;;;11.80;5.35;;;9.00;76.80;;;;;;5034714;28;20589;-74
2021/04/24 01:17:44;;;;;;;10.15;5.18;;;8.90;77.10;;;;;;5034600;28;20291;-74
2021/04/24 01:20:12;;;;;;;6.55;4.70;;;9.00;77.20;;;;;;5034658;28;20206;-74
2021/04/24 01:22:40;;;;;;;9.55;5.60;;;8.90;77.20;;;;;;5034328;28;20778;-74
2021/04/24 01:25:09;;;;;;;9.30;5.32;;;8.90;77.50;;;;;;5034557;28;20304;-74
2021/04/24 01:27:36;;;;;;;9.85;5.20;;;8.80;77.70;;;;;;5034156;28;20291;-74
2021/04/24 01:30:04;;;;;;;8.52;5.68;;;8.70;78.00;;;;;;5034502;28;20569;-74
2021/04/24 01:32:30;;;;;;;8.27;5.32;;;8.70;78.50;;;;;;5034167;28;20327;-74
2021/04/24 01:34:56;;;;;;;12.80;5.82;;;8.80;78.80;;;;;;5034128;28;20234;-74
2021/04/24 01:37:24;;;;;;;9.82;6.28;;;8.80;78.90;;;;;;5034202;28;20236;-74
2021/04/24 01:39:51;;;;;;;11.95;5.70;;;8.70;80.10;;;;;;5034291;28;20279;-73
2021/04/24 01:42:17;;;;;;;9.25;6.40;;;8.60;80.00;;;;;;5034274;28;20231;-74
2021/04/24 01:44:44;;;;;;;8.02;6.00;;;8.60;80.20;;;;;;5034265;28;20204;-74
2021/04/24 01:47:10;;;;;;;9.52;5.60;;;8.60;80.70;;;;;;5034037;28;20294;-74
2021/04/24 01:49:36;;;;;;;9.85;5.70;;;8.60;80.90;;;;;;5033936;28;20310;-74
2021/04/24 01:52:04;;;;;;;9.32;6.30;;;8.50;81.30;;;;;;5033919;28;20315;-74
2021/04/24 01:54:30;;;;;;;7.47;5.55;;;8.50;81.70;;;;;;5034024;28;20238;-74
2021/04/24 01:56:59;;;;;;;7.28;5.13;;;8.50;82.20;;;;;;5033892;28;20303;-74
2021/04/24 01:59:28;;;;;;;10.70;5.32;;;8.40;82.00;;;;;;5034013;28;20211;-73
2021/04/24 02:01:56;;;;;;;10.32;5.78;;;8.40;82.10;;;;;;5033874;28;20232;-73
2021/04/24 02:04:28;;;;;;;9.32;5.65;;;8.40;82.50;;;;;;5033992;28;20576;-74
2021/04/24 02:06:55;;;;;;;10.90;5.13;;;8.30;82.70;;;;;;5033581;28;20686;-73
2021/04/24 02:09:23;;;;;;;7.90;5.60;;;8.20;83.20;;;;;;5033862;28;20299;-73
2021/04/24 02:12:06;;;;;;;12.07;5.18;;;8.10;84.00;;;;;;5033712;28;20607;-73
2021/04/24 02:14:37;;;;;;;9.20;5.55;;;8.00;84.60;;;;;;5032943;28;20228;-73
2021/04/24 02:17:04;;;;;;;8.82;5.28;;;7.90;84.60;;;;;;5033269;28;20212;-74
2021/04/24 02:19:30;;;;;;;8.52;5.85;;;7.90;85.30;;;;;;5033697;28;20208;-74
2021/04/24 02:21:57;;;;;;;13.57;6.15;;;7.90;85.10;;;;;;5033678;28;20315;-73
2021/04/24 02:24:23;;;;;;;9.07;5.97;;;7.90;85.70;;;;;;5033410;28;20294;-74
2021/04/24 02:26:49;;;;;;;8.15;5.45;;;8.00;85.50;;;;;;5033452;28;20196;-73
2021/04/24 02:29:17;;;;;;;12.85;6.15;;;8.10;85.70;;;;;;5033606;28;20200;-73
2021/04/24 02:31:43;;;;;;;8.95;5.22;;;8.10;85.50;;;;;;5033383;28;20295;-74
2021/04/24 02:34:10;;;;;;;9.00;5.90;;;8.10;85.60;;;;;;5033575;28;20629;-74
2021/04/24 02:36:36;;;;;;;7.57;6.03;;;8.10;85.30;;;;;;5033071;28;20702;-74
2021/04/24 02:39:03;;;;;;;8.68;6.05;;;8.00;85.70;;;;;;5033464;28;20226;-74
2021/04/24 02:41:29;;;;;;;7.47;4.97;;;8.10;85.80;;;;;;5033479;28;20296;-74
2021/04/24 02:43:56;;;;;;;7.20;5.82;;;8.20;86.00;;;;;;5033460;28;20626;-74
2021/04/24 02:46:23;;;;;;;8.23;5.80;;;8.20;86.60;;;;;;5033100;28;20196;-74
2021/04/24 02:48:49;;;;;;;8.23;5.65;;;8.20;87.00;;;;;;5033377;28;20294;-74
2021/04/24 02:51:15;;;;;;;6.68;5.22;;;8.30;87.20;;;;;;5033189;28;20670;-74
2021/04/24 02:53:42;;;;;;;5.88;4.75;;;8.30;87.10;;;;;;5033049;28;20315;-74
2021/04/24 02:56:08;;;;;;;8.90;5.80;;;8.30;85.90;;;;;;5033008;28;20281;-73
2021/04/24 02:58:34;;;;;;;11.30;5.82;;;8.30;86.50;;;;;;5033294;28;20295;-74
2021/04/24 03:01:01;;;;;;;9.25;5.32;;;8.30;86.30;;;;;;5033290;28;20619;-73
2021/04/24 03:03:28;;;;;;;8.95;5.25;;;8.30;86.30;;;;;;5032909;28;20228;-73
2021/04/24 03:05:57;;;;;;;9.23;6.20;;;8.30;87.20;;;;;;5033048;28;20204;-73
2021/04/24 03:08:23;;;;;;;9.32;5.60;;;8.30;87.00;;;;;;5033252;28;20208;-73
2021/04/24 03:10:50;;;;;;;10.57;5.63;;;8.30;87.40;;;;;;5033175;28;20227;-74
2021/04/24 03:13:16;;;;;;;10.20;6.50;;;8.30;88.20;;;;;;5032922;28;20228;-74
2021/04/24 03:15:42;;;;;;;13.68;6.63;;;8.20;89.00;;;;;;5032664;28;20816;-73
2021/04/24 03:18:09;;;;;;;12.30;6.20;;;8.10;89.70;;;;;;5033581;28;20235;-73
2021/04/24 03:20:36;;;;;;;11.40;5.90;;;8.00;90.00;;;;;;5032970;28;20741;-74
2021/04/24 03:23:04;;;;;;;8.50;5.85;;;7.90;90.00;;;;;;5033138;28;20224;-74
2021/04/24 03:25:30;;;;;;;8.43;5.47;;;7.90;90.40;;;;;;5034620;28;20207;-74
2021/04/24 03:27:57;;;;;;;11.10;5.68;;;7.80;90.60;;;;;;5036812;28;20204;-74
2021/04/24 03:30:24;;;;;;;9.85;6.15;;;7.80;90.60;;;;;;5036820;28;20200;-73
2021/04/24 03:32:50;;;;;;;7.75;6.03;;;7.90;90.60;;;;;;5036438;28;20242;-74
2021/04/24 03:35:17;;;;;;;9.75;6.70;;;7.90;90.60;;;;;;5036659;28;20319;-74
2021/04/24 03:37:44;;;;;;;11.45;5.80;;;7.90;90.70;;;;;;5036416;28;20210;-74
2021/04/24 03:40:11;;;;;;;9.30;6.03;;;7.90;90.90;;;;;;5036392;28;20204;-74
2021/04/24 03:42:38;;;;;;;8.75;6.57;;;7.80;91.10;;;;;;5036424;28;20311;-74
2021/04/24 03:45:17;;;;;;;9.18;5.95;;;7.80;91.10;;;;;;5036485;28;20257;-74
2021/04/24 03:47:43;;;;;;;11.10;6.30;;;7.70;91.50;;;;;;5036354;28;20199;-74
2021/04/24 03:50:11;;;;;;;10.43;5.95;;;7.60;91.80;;;;;;5036429;28;20296;-74
2021/04/24 03:52:37;;;;;;;8.68;6.25;;;7.50;92.00;;;;;;5036203;28;20307;-73
2021/04/24 03:55:05;;;;;;;11.15;6.10;;;7.40;92.40;;;;;;5035937;28;20690;-73
2021/04/24 03:57:32;;;;;;;12.70;5.65;;;7.50;92.40;;;;;;5036097;28;20201;-73
2021/04/24 03:59:59;;;;;;;12.07;6.57;;;7.50;92.20;;;;;;5036181;28;20306;-73
2021/04/24 04:02:25;;;;;;;8.70;5.65;;;7.50;92.40;;;;;;5035961;28;20694;-73
2021/04/24 04:04:52;;;;;;;8.00;5.30;;;7.60;92.40;;;;;;5036122;28;20231;-73
2021/04/24 04:07:18;;;;;;;9.73;5.85;;;7.70;92.20;;;;;;5035651;28;20602;-73
2021/04/24 04:09:45;;;;;;;9.32;6.13;;;7.60;92.20;;;;;;5036062;28;20295;-73
2021/04/24 04:12:12;;;;;;;9.98;5.97;;;7.60;92.30;;;;;;5035692;28;20793;-73
2021/04/24 04:14:38;;;;;;;7.60;5.50;;;7.60;92.70;;;;;;5035663;28;20211;-73
2021/04/24 04:17:05;;;;;;;7.57;5.78;;;7.60;93.10;;;;;;5035602;28;20666;-73
2021/04/24 04:19:31;;;;;;;9.13;6.25;;;7.50;92.90;;;;;;5035849;28;20294;-73
2021/04/24 04:21:57;;;;;;;11.43;6.53;;;7.50;92.80;;;;;;5035528;28;20315;-73
2021/04/24 04:24:24;;;;;;;11.05;5.70;;;7.50;93.10;;;;;;5035752;28;20290;-73
2021/04/24 04:26:50;;;;;;;10.00;6.45;;;7.60;93.50;;;;;;5035543;28;20227;-73
2021/04/24 04:29:17;;;;;;;8.27;5.75;;;7.60;93.70;;;;;;5035649;28;20204;-73
2021/04/24 04:31:43;;;;;;;8.38;6.15;;;7.60;93.70;;;;;;5035453;28;20299;-74
2021/04/24 04:34:10;;;;;;;10.30;6.00;;;7.60;93.60;;;;;;5035754;28;20654;-73
2021/04/24 04:36:36;;;;;;;11.55;7.03;;;7.40;93.90;;;;;;5034260;28;20283;-73
2021/04/24 04:39:03;;;;;;;7.18;5.63;;;7.00;94.30;;;;;;5035241;28;20295;-73
2021/04/24 04:41:29;;;;;;;9.52;6.28;;;6.90;95.20;;;;;;5035468;28;20566;-73
2021/04/24 04:43:55;;;;;;;10.52;6.13;;;7.00;95.70;;;;;;5035399;28;20258;-73
2021/04/24 04:46:23;;;;;;;10.20;5.43;;;7.00;95.60;;;;;;5034966;28;20287;-73
2021/04/24 04:48:49;;;;;;;10.50;6.00;;;7.00;95.60;;;;;;5035218;28;20688;-73
2021/04/24 04:51:15;;;;;;;8.25;6.15;;;7.00;95.70;;;;;;5035227;28;20215;-73
2021/04/24 04:53:42;;;;;;;10.73;5.90;;;7.00;95.90;;;;;;5035227;28;20282;-73
2021/04/24 04:56:08;;;;;;;8.32;5.38;;;7.00;96.10;;;;;;5034995;28;20825;-73
2021/04/24 04:58:34;;;;;;;9.88;6.18;;;7.00;96.50;;;;;;5035114;28;20291;-73
2021/04/24 05:01:00;;;;;;;10.02;5.70;;;6.90;96.90;;;;;;5035100;28;20240;-73
2021/04/24 05:03:28;;;;;;;8.80;5.82;;;6.90;97.10;;;;;;5035062;28;20311;-73
2021/04/24 05:05:54;;;;;;;9.82;6.35;;;6.90;97.20;;;;;;5034689;28;20303;-73
2021/04/24 05:08:20;;;;;;;9.25;6.30;;;7.00;96.90;;;;;;5034954;28;20651;-73
2021/04/24 05:10:47;;;;;;;14.13;6.70;;;6.80;97.10;;;;;;5034884;28;20621;-73
2021/04/24 05:13:13;;;;;;;10.30;5.97;;;6.80;97.30;;;;;;5034888;28;20319;-73
2021/04/24 05:15:39;;;;;;;12.95;6.20;;;6.90;97.50;;;;;;5034467;28;20266;-73
2021/04/24 05:18:06;;;;;;;11.75;6.10;;;7.00;97.70;;;;;;5034834;28;20291;-73
2021/04/24 05:20:33;;;;;;;14.85;7.50;;;7.10;97.70;;;;;;5034400;28;20663;-73
2021/04/24 05:22:59;;;;;;;10.55;6.60;;;7.10;97.70;;;;;;5034709;28;20305;-73
2021/04/24 05:25:26;;;;;;;11.02;6.90;;;6.90;98.00;;;;;;5034479;28;20722;-73
2021/04/24 05:27:52;;;;;;;9.50;6.45;;;6.80;98.90;;;;;;5034605;28;20247;-73
2021/04/24 05:30:19;;;;;;;9.88;6.75;;;6.70;99.30;;;;;;5034522;28;20295;-73
2021/04/24 05:32:46;;;;;;;11.43;7.60;;;6.50;99.90;;;;;;5034059;28;20282;-73
2021/04/24 05:35:15;;;;;;;8.93;6.72;;;6.50;99.80;;;;;;5034357;28;20311;-73
2021/04/24 05:37:42;;;;;;;10.10;6.72;;;6.40;99.90;;;;;;5034144;28;20204;-73
2021/04/24 05:40:09;;;;;;;10.02;6.80;;;6.30;99.90;;;;;;5034193;28;20299;-73
2021/04/24 05:42:35;;;;;;;12.13;6.65;;;6.30;99.90;;;;;;5034083;28;20581;-73
2021/04/24 05:45:10;;;;;;;13.27;6.55;;;6.40;99.90;;;;;;5034366;28;20295;-73
2021/04/24 05:47:36;;;;;;;11.07;7.75;;;6.40;99.90;;;;;;5033901;28;20207;-73
2021/04/24 05:50:04;;;;;;;9.75;7.30;;;6.50;99.90;;;;;;5034141;28;20295;-73
2021/04/24 05:52:31;;;;;;;11.25;7.40;;;6.80;99.90;;;;;;5034029;28;20656;-73
2021/04/24 05:54:58;;;;;;;11.70;7.75;;;7.10;99.90;;;;;;5033862;28;20242;-73
2021/04/24 05:57:24;;;;;;;9.85;7.28;;;7.30;99.90;;;;;;5033918;28;20625;-73
2021/04/24 05:59:50;;;;;;;11.23;7.53;;;7.50;99.70;;;;;;5034011;28;20291;-73
2021/04/24 06:02:17;;;;;;;13.20;8.10;;;7.70;99.20;;;;;;5033591;28;20316;-73
2021/04/24 06:04:43;;;;;;;15.25;8.18;;;7.60;99.10;;;;;;5033953;28;20231;-73
2021/04/24 06:07:09;;;;;;;11.80;7.55;;;7.60;98.70;;;;;;5033725;28;20623;-73
2021/04/24 06:09:36;;;;;;;10.30;7.53;;;7.50;98.60;;;;;;5033857;28;20299;-73
2021/04/24 06:12:03;;;;;;;10.48;7.85;;;7.40;98.80;;;;;;5033800;28;20323;-73
2021/04/24 06:14:29;;;;;;;13.48;8.10;;;7.30;98.80;;;;;;5033819;28;20204;-73
2021/04/24 06:16:58;;;;;;;10.98;7.55;;;7.30;99.10;;;;;;5033230;28;20285;-73
2021/04/24 06:19:24;;;;;;;13.07;7.57;;;7.40;99.30;;;;;;5033693;28;20555;-73
2021/04/24 06:21:51;;;;;;;13.50;7.80;;;7.50;99.20;;;;;;5033619;28;20295;-73
2021/04/24 06:24:17;;;;;;;11.65;7.97;;;7.50;98.90;;;;;;5033744;28;20298;-73
2021/04/24 06:26:43;;;;;;;10.60;6.88;;;7.60;98.60;;;;;;5033318;28;20287;-73
2021/04/24 06:29:11;;;;;;;14.70;8.00;;;7.60;98.60;;;;;;5033522;28;20792;-73
2021/04/24 06:31:37;;;;;;;12.45;7.57;;;7.80;98.60;;;;;;5033008;28;20204;-74
2021/04/24 06:34:04;;;;;;;10.13;6.68;;;7.80;98.90;;;;;;5033661;28;20199;-73
2021/04/24 06:36:30;;;;;;;12.50;7.70;;;7.90;98.60;;;;;;5033063;28;20268;-73
2021/04/24 06:38:58;;;;;;;11.70;7.75;;;7.90;98.50;;;;;;5033523;28;20295;-73
2021/04/24 06:41:27;;;;;;;15.38;8.00;;;8.00;98.40;;;;;;5033479;28;20208;-73
2021/04/24 06:43:53;;;;;;;10.07;7.35;;;8.10;98.20;;;;;;5033327;28;20238;-73
2021/04/24 06:46:21;;;;;;;13.88;7.90;;;8.30;97.80;;;;;;5033195;28;20292;-73
2021/04/24 06:48:47;;;;;;;17.05;8.45;;;8.40;97.90;;;;;;5033435;28;20232;-73
2021/04/24 06:51:13;;;;;;;11.50;7.63;;;8.50;97.60;;;;;;5033357;28;20536;-73
2021/04/24 06:53:40;;;;;;;13.77;7.43;;;8.50;97.60;;;;;;5033434;28;20255;-73
2021/04/24 06:56:07;;;;;;;18.58;8.57;;;8.50;98.00;;;;;;5032985;28;20247;-73
2021/04/24 06:58:33;;;;;;;14.55;7.65;;;8.60;97.70;;;;;;5033193;28;20287;-73
2021/04/24 07:00:59;;;;;;;11.23;7.70;;;8.80;96.90;;;;;;5035935;28;20242;-74
2021/04/24 07:03:27;;;;;;;11.32;8.45;;;9.00;96.60;;;;;;5036964;28;20310;-73
2021/04/24 07:05:53;;;;;;;11.05;7.55;;;9.10;95.80;;;;;;5036870;28;20231;-73
2021/04/24 07:08:19;;;;;;;13.60;8.20;;;9.30;95.30;;;;;;5037134;28;20209;-73
2021/04/24 07:10:47;;;;;;;11.20;7.95;;;9.50;95.20;;;;;;5037018;28;20208;-74
2021/04/24 07:13:13;;;;;;;11.60;7.90;;;9.50;94.80;;;;;;5036933;28;20230;-73
2021/04/24 07:15:40;;;;;;;13.25;8.30;;;9.50;93.90;;;;;;5036734;28;20315;-73
2021/04/24 07:18:06;;;;;;;15.27;8.80;;;9.60;93.80;;;;;;5036995;28;20758;-73
2021/04/24 07:20:33;;;;;;;10.40;8.05;;;9.70;93.30;;;;;;5036990;28;20617;-74
2021/04/24 07:23:00;;;;;;;13.85;8.13;;;9.70;93.00;;;;;;5036873;28;20627;-73
2021/04/24 07:25:26;;;;;;;11.20;7.40;;;9.80;93.10;;;;;;5036711;28;20287;-73
2021/04/24 07:27:53;;;;;;;11.00;7.05;;;9.90;93.30;;;;;;5036869;28;20294;-73
2021/04/24 07:30:20;;;;;;;9.85;7.15;;;10.00;91.00;;;;;;5036550;28;20204;-74
2021/04/24 07:32:47;;;;;;;9.68;7.07;;;10.10;90.70;;;;;;5036403;28;20323;-74
2021/04/24 07:35:14;;;;;;;12.77;7.20;;;10.30;89.60;;;;;;5036621;28;20620;-73
2021/04/24 07:37:41;;;;;;;10.38;6.93;;;10.40;87.90;;;;;;5036463;28;20204;-73
2021/04/24 07:40:09;;;;;;;15.02;7.25;;;10.50;87.60;;;;;;5036511;28;20604;-73
2021/04/24 07:42:36;;;;;;;11.90;7.50;;;10.60;88.50;;;;;;5036514;28;20307;-74
2021/04/24 07:45:04;;;;;;;9.30;7.05;;;10.70;85.30;;;;;;5036494;28;20208;-74
2021/04/24 07:47:30;;;;;;;11.48;7.38;;;10.80;85.80;;;;;;5036277;28;20204;-73
2021/04/24 07:49:57;;;;;;;12.20;8.40;;;11.10;85.00;;;;;;5036256;28;20606;-74
2021/04/24 07:52:23;;;;;;;11.50;7.60;;;11.20;84.40;;;;;;5036247;28;20277;-73
2021/04/24 07:54:50;;;;;;;9.25;7.70;;;11.20;83.10;;;;;;5036356;28;20639;-74
2021/04/24 07:57:17;;;;;;;11.32;7.57;;;11.30;83.10;;;;;;5035995;28;20773;-74
2021/04/24 07:59:44;;;;;;;13.23;7.18;;;11.40;80.90;;;;;;5036263;28;20291;-73
2021/04/24 08:02:13;;;;;;;11.20;7.63;;;11.70;80.60;;;;;;5036084;28;20224;-74
2021/04/24 08:04:39;;;;;;;10.02;6.78;;;12.40;79.00;;;;;;5036262;28;20205;-73
2021/04/24 08:07:07;;;;;;;13.20;6.60;;;13.30;75.80;;;;;;5035712;28;20210;-74
2021/04/24 08:09:34;;;;;;;15.80;7.38;;;15.10;69.40;;;;;;5035762;28;20297;-73
2021/04/24 08:12:01;;;;;;;10.80;7.00;;;17.20;61.90;;;;;;5035158;28;20316;-74
2021/04/24 08:14:27;;;;;;;8.73;6.25;;;18.60;55.10;;;;;;5035690;28;20666;-74
2021/04/24 08:16:54;;;;;;;10.23;5.85;;;19.00;50.80;;;;;;5035696;28;20228;-73
2021/04/24 08:19:21;;;;;;;9.55;6.30;;;19.00;49.10;;;;;;5035798;28;20299;-73
2021/04/24 08:21:47;;;;;;;9.40;5.60;;;18.80;48.20;;;;;;5035671;28;20583;-74
2021/04/24 08:24:14;;;;;;;7.22;5.43;;;17.70;48.90;;;;;;5035574;28;20214;-74
2021/04/24 08:26:40;;;;;;;12.35;6.20;;;16.90;50.30;;;;;;5035589;28;20244;-74
2021/04/24 08:29:07;;;;;;;10.13;5.55;;;16.80;51.50;;;;;;5035684;28;20353;-74
2021/04/24 08:31:34;;;;;;;9.90;6.15;;;16.80;51.70;;;;;;5035525;28;20206;-74
2021/04/24 08:34:01;;;;;;;8.40;5.70;;;16.70;50.40;;;;;;5035634;28;20317;-74
2021/04/24 08:36:27;;;;;;;9.35;6.28;;;16.40;51.10;;;;;;5035250;28;20249;-73
2021/04/24 08:38:54;;;;;;;9.85;5.80;;;16.00;51.60;;;;;;5035490;28;20207;-74
2021/04/24 08:41:21;;;;;;;9.00;6.35;;;15.70;53.10;;;;;;5035493;28;20209;-74
2021/04/24 08:43:49;;;;;;;9.23;6.40;;;15.70;53.30;;;;;;5035136;28;20252;-74
2021/04/24 08:46:16;;;;;;;9.27;6.80;;;16.10;54.40;;;;;;5035189;28;20202;-74
2021/04/24 08:48:43;;;;;;;10.43;6.07;;;16.80;52.60;;;;;;5035362;28;20282;-74
2021/04/24 08:51:09;;;;;;;9.00;6.50;;;17.30;51.90;;;;;;5035016;28;20239;-74
2021/04/24 08:53:36;;;;;;;10.65;6.63;;;17.60;50.90;;;;;;5035223;28;20220;-74
2021/04/24 08:56:02;;;;;;;9.00;6.63;;;17.90;49.90;;;;;;5034670;28;20316;-74
2021/04/24 08:58:29;;;;;;;6.82;5.63;;;18.30;48.90;;;;;;5035137;28;20203;-74
2021/04/24 09:00:56;;;;;;;9.83;6.10;;;19.40;47.00;;;;;;5035127;28;20201;-74
2021/04/24 09:03:23;;;;;;;8.30;6.13;;;20.60;44.90;;;;;;5034761;28;20556;-75
2021/04/24 09:05:50;;;;;;;8.67;6.30;;;22.50;40.70;;;;;;5034875;28;20432;-74
2021/04/24 09:08:23;;;;;;;9.77;5.77;;;23.30;40.30;;;;;;5035548;28;20836;-75
2021/04/24 09:10:50;;;;;;;7.60;6.47;;;24.90;36.70;;;;;;5034932;28;20534;-72
2021/04/24 09:13:19;;;;;;;9.53;6.50;;;24.90;34.90;;;;;;5034721;28;20465;-72
2021/04/24 09:15:45;;;;;;;8.20;6.40;;;25.80;35.30;;;;;;5034412;28;20505;-72
2021/04/24 09:18:12;;;;;;;8.47;6.37;;;27.20;33.20;;;;;;5034740;28;20446;-72
2021/04/24 09:20:47;;;;;;;7.77;5.73;;;28.50;30.00;;;;;;5034742;28;20446;-73
2021/04/24 09:23:14;;;;;;;9.37;6.60;;;30.10;28.80;;;;;;5034507;28;20468;-73
2021/04/24 09:25:44;;;;;;;8.63;6.30;;;31.50;27.90;;;;;;5034328;28;20451;-72
2021/04/24 09:28:23;;;;;;;6.10;5.40;;;32.00;26.80;;;;;;5034289;28;20535;-73
2021/04/24 09:30:49;;;;;;;11.57;6.80;;;33.40;26.00;;;;;;5034512;28;20537;-73
2021/04/24 09:33:16;;;;;;;8.47;7.30;;;34.00;24.30;;;;;;5034156;28;20510;-73
2021/04/24 09:35:50;;;;;;;7.67;6.90;;;33.80;23.40;;;;;;5034207;28;20518;-72
2021/04/24 09:38:26;;;;;;;8.20;6.87;;;31.30;24.00;;;;;;5034186;28;20929;-73
2021/04/24 09:41:15;;;;;;;7.17;6.47;;;30.90;24.90;;;;;;5034189;28;20490;-73
2021/04/24 09:43:57;;;;;;;8.63;6.43;;;31.00;25.60;;;;;;5033979;28;20981;-73
2021/04/24 09:46:26;;;;;;;7.93;7.13;;;32.30;24.40;;;;;;5033851;28;20822;-73
2021/04/24 09:49:16;;;;;;;8.17;6.47;;;31.50;23.80;;;;;;5034201;28;20782;-72
2021/04/24 09:51:46;;;;;;;10.67;7.10;;;30.30;25.90;;;;;;5034071;28;20858;-72
2021/04/24 09:54:13;;;;;;;7.70;6.63;;;30.00;26.00;;;;;;5034027;28;20488;-73
2021/04/24 09:56:40;;;;;;;8.10;7.13;;;29.10;25.00;;;;;;5033837;28;20441;-72
2021/04/24 09:59:07;;;;;;;9.03;6.67;;;29.10;25.80;;;;;;5033854;28;20445;-72
2021/04/24 10:01:38;;;;;;;9.27;7.30;;;28.50;26.20;;;;;;5033917;28;21017;-72
2021/04/24 10:04:11;;;;;;;10.50;6.83;;;28.80;27.20;;;;;;5033931;28;20434;-72
2021/04/24 10:06:39;;;;;;;6.73;6.00;;;30.20;25.90;;;;;;5033700;28;20478;-72
2021/04/24 10:09:21;;;;;;;10.90;7.40;;;31.30;25.00;;;;;;5033728;28;20880;-73
2021/04/24 10:11:50;;;;;;;6.90;6.30;;;32.30;24.60;;;;;;5033739;28;20527;-73
2021/04/24 10:14:32;;;;;;;7.00;6.30;;;34.00;23.80;;;;;;5033473;28;20941;-73
2021/04/24 10:16:59;;;;;;;7.13;6.43;;;33.10;23.00;;;;;;5033626;28;20461;-73
2021/04/24 10:19:27;;;;;;;7.77;7.07;;;33.80;22.90;;;;;;5033776;28;20529;-73
2021/04/24 10:21:54;;;;;;;10.10;7.00;;;33.40;22.10;;;;;;5033680;28;20447;-73
2021/04/24 10:24:25;;;;;;;8.80;7.13;;;33.20;23.00;;;;;;5033688;28;20442;-73
2021/04/24 10:26:52;;;;;;;8.03;7.23;;;33.40;22.40;;;;;;5033314;28;20531;-72
2021/04/24 10:29:19;;;;;;;7.17;6.27;;;32.20;22.30;;;;;;5033590;28;20817;-73
2021/04/24 10:31:46;;;;;;;7.13;6.43;;;30.60;23.40;;;;;;5033130;28;20997;-73
2021/04/24 10:34:14;;;;;;;7.27;6.53;;;29.10;24.70;;;;;;5033060;28;20487;-72
2021/04/24 10:36:40;;;;;;;8.73;6.70;;;27.90;26.70;;;;;;5033047;28;20533;-72
2021/04/24 10:39:09;;;;;;;8.53;6.63;;;29.00;26.60;;;;;;5033483;28;20536;-72
2021/04/24 10:41:39;;;;;;;9.50;7.67;;;29.70;25.70;;;;;;5033742;28;20475;-73
2021/04/24 10:44:08;;;;;;;7.77;6.97;;;29.90;23.90;;;;;;5033610;28;20438;-73
2021/04/24 10:46:37;;;;;;;9.83;7.50;;;28.40;25.80;;;;;;5033024;28;20573;-72
2021/04/24 10:49:27;;;;;;;8.60;6.50;;;27.40;25.10;;;;;;5033433;28;20439;-75
2021/04/24 10:52:05;;;;;;;9.40;6.87;;;27.40;26.70;;;;;;5033307;28;20447;-74
2021/04/24 10:54:32;;;;;;;7.97;6.13;;;26.30;26.60;;;;;;5033224;28;20443;-75
2021/04/24 10:57:01;;;;;;;6.43;5.57;;;26.90;26.70;;;;;;5033214;28;20445;-72
2021/04/24 10:59:29;;;;;;;7.70;6.70;;;27.80;26.60;;;;;;5033219;28;20454;-73
2021/04/24 11:02:10;;;;;;;7.27;6.10;;;28.30;25.70;;;;;;5033198;28;20476;-72
2021/04/24 11:04:48;;;;;;;7.93;6.10;;;29.00;26.70;;;;;;5033286;28;20446;-73
2021/04/24 11:07:20;;;;;;;7.60;6.40;;;28.70;24.10;;;;;;5032891;28;20521;-72
2021/04/24 11:10:28;;;;;;;10.60;6.60;;;26.50;25.80;;;;;;5033222;28;20449;-74
2021/04/24 11:13:00;;;;;;;10.43;6.87;;;25.40;27.90;;;;;;5033243;28;20506;-75
2021/04/24 11:15:27;;;;;;;7.30;6.50;;;25.70;28.90;;;;;;5032873;28;20447;-71
2021/04/24 11:17:56;;;;;;;7.30;6.10;;;25.70;27.00;;;;;;5033448;28;20480;-72
2021/04/24 11:20:48;;;;;;;7.90;6.37;;;25.20;28.50;;;;;;5033093;28;20453;-73
2021/04/24 11:24:01;;;;;;;9.33;6.30;;;24.20;28.60;;;;;;5033834;28;20550;-74
2021/04/24 11:26:49;;;;;;;8.57;6.10;;;22.80;30.10;;;;;;5032757;28;20536;-73
2021/04/24 11:29:18;;;;;;;8.03;6.50;;;22.70;31.50;;;;;;5032924;28;20989;-74
2021/04/24 11:32:02;;;;;;;7.87;6.17;;;22.90;30.60;;;;;;5032782;28;20474;-74
2021/04/24 11:34:43;;;;;;;9.17;6.10;;;22.60;30.20;;;;;;5032830;28;20514;-74
2021/04/24 11:37:48;;;;;;;7.30;6.10;;;22.10;29.40;;;;;;5032678;28;20928;-73
2021/04/24 11:40:24;;;;;;;8.33;6.70;;;21.70;31.30;;;;;;5032971;28;20534;-75
2021/04/24 11:43:08;;;;;;;9.50;5.80;;;21.80;31.00;;;;;;5032892;28;20896;-74
2021/04/24 11:45:46;;;;;;;8.40;5.40;;;21.90;30.40;;;;;;5032877;28;20532;-74
2021/04/24 11:48:13;;;;;;;8.10;5.50;;;21.30;30.70;;;;;;5036412;28;20448;-74
2021/04/24 11:50:41;;;;;;;14.38;6.70;;;20.30;30.00;;;;;;5036169;28;20299;-74
2021/04/24 11:53:09;;;;;;;7.32;5.60;;;19.90;31.40;;;;;;5036350;28;20259;-73
2021/04/24 11:55:37;;;;;;;9.25;6.22;;;19.80;32.50;;;;;;5036162;28;20209;-73
2021/04/24 11:58:04;;;;;;;7.63;5.50;;;19.70;31.20;;;;;;5036272;28;20201;-73
2021/04/24 12:00:32;;;;;;;9.23;6.45;;;19.70;31.70;;;;;;5036133;28;20689;-73
2021/04/24 12:02:59;;;;;;;8.93;6.03;;;19.70;31.00;;;;;;5036130;28;20323;-73
2021/04/24 12:05:25;;;;;;;15.60;6.03;;;20.00;32.40;;;;;;5035923;28;20539;-73
2021/04/24 12:07:52;;;;;;;9.85;5.72;;;20.10;31.80;;;;;;5036133;28;20600;-73
2021/04/24 12:10:20;;;;;;;9.87;5.63;;;20.30;33.80;;;;;;5036037;28;20304;-74
2021/04/24 12:12:48;;;;;;;12.03;6.40;;;20.60;31.80;;;;;;5035793;28;20479;-74
2021/04/24 12:15:17;;;;;;;10.20;5.95;;;20.70;31.60;;;;;;5035619;28;21008;-73
2021/04/24 12:17:48;;;;;;;8.48;6.38;;;20.30;31.50;;;;;;5035975;28;20605;-73
2021/04/24 12:20:23;;;;;;;8.93;5.60;;;19.80;30.90;;;;;;5035918;28;20615;-73
2021/04/24 12:22:50;;;;;;;8.18;5.55;;;19.70;31.50;;;;;;5035764;28;20227;-73
2021/04/24 12:25:17;;;;;;;9.18;6.30;;;19.60;31.60;;;;;;5035886;28;20604;-74
2021/04/24 12:27:45;;;;;;;11.75;8.40;;;19.50;32.60;;;;;;5035417;28;20729;-74
2021/04/24 12:30:15;;;;;;;13.50;9.47;;;19.90;33.10;;;;;;5035700;28;20286;-74
2021/04/24 12:32:43;;;;;;;10.80;6.63;;;20.30;33.20;;;;;;5035390;28;20484;-74
2021/04/24 12:35:13;;;;;;;7.60;5.40;;;20.70;32.20;;;;;;5035622;28;20527;-74
2021/04/24 12:37:41;;;;;;;7.57;5.40;;;21.00;31.10;;;;;;5035373;28;20525;-73
2021/04/24 12:40:13;;;;;;;7.57;5.77;;;21.10;31.10;;;;;;5035943;28;20531;-73
2021/04/24 12:42:40;;;;;;;7.93;6.40;;;21.20;30.60;;;;;;5035208;28;20460;-73
2021/04/24 12:45:13;;;;;;;10.20;6.80;;;21.20;31.10;;;;;;5035291;28;20996;-74
2021/04/24 12:47:40;;;;;;;8.70;5.80;;;21.30;30.80;;;;;;5035181;28;20842;-73
2021/04/24 12:50:10;;;;;;;7.63;5.50;;;21.20;30.90;;;;;;5035569;28;20482;-74
2021/04/24 12:52:45;;;;;;;10.60;6.40;;;21.30;30.80;;;;;;5035224;28;20545;-73
2021/04/24 12:55:14;;;;;;;7.70;5.67;;;21.30;30.70;;;;;;5034969;28;20536;-74